Latest Coastal Weather Observations for Varanus Island

IDW60701

Issued at 9:53 pm WST Monday 4 May 2026 (issued every 10 minutes, with the page automatically refreshed every 10 minutes)

About coastal observations | Map of coastal stations | Coastal observations for WA | Marine services | Other Formats
Station Details ID: 200100 Name: VARANUS ISLAND Lat: -20.66 Lon: 115.58 Height: 24.0 m
Data from the previous 72 hours. | See also: Recent months at Varanus Island
Date/Time
WST
Wind Sea
Height
m
Swell Vis
km
Cloud Weather Temp
°C
Press
MSL
hPa
Rain since
9am
mm
Dir  Spd
kts
Gust
kts
Height
m
Period
s
Dir
04/09:30pm NE 11 13 - - - - - - - 27.7 1015.8 0.0
04/09:00pm NE 11 13 - - - - - - - 27.8 1016.1 0.0
04/08:30pm NE 12 15 - - - - - - - 27.8 1016.1 0.0
04/08:00pm NE 13 16 - - - - - - - 27.8 1015.9 0.0
04/07:30pm NE 12 15 - - - - - - - 27.6 1015.7 0.0
04/07:00pm NE 11 15 - - - - - - - 27.5 1015.4 0.0
04/06:30pm NE 12 15 - - - - - - - 27.4 1015.2 0.0
04/06:00pm NE 11 14 - - - - - - - 27.5 1015.1 0.0
04/05:30pm NE 11 15 - - - - - - - 27.7 1014.7 0.0
04/05:00pm NE 13 16 - - - - - - - 27.9 1014.7 0.0
04/04:30pm NE 14 17 - - - - - - - 28.3 1014.7 0.0
04/04:00pm ENE 15 18 - - - - - - - 28.4 1014.6 0.0
04/03:30pm ENE 15 17 - - - - - - - 28.6 1014.6 0.0
04/03:00pm ENE 16 18 - - - - - - - 28.4 1014.7 0.0
04/02:30pm ENE 17 19 - - - - - - - 28.5 1014.7 0.0
04/02:00pm ENE 17 21 - - - - - - - 28.6 1015.1 0.0
04/01:30pm ENE 18 21 - - - - - - - 28.1 1015.3 0.0
04/01:00pm E 20 23 - - - - - - - 27.7 1015.6 0.0
04/12:30pm E 21 24 - - - - - - - 28.1 1016.1 0.0
04/12:00pm E 20 24 - - - - - - - 27.5 1016.5 0.0
04/11:30am E 22 26 - - - - - - - 27.7 1016.9 0.0
04/11:00am E 23 25 - - - - - - - 27.1 1017.3 0.0
04/10:30am E 24 27 - - - - - - - 27.0 1017.7 0.0
04/10:00am E 25 29 - - - - - - - 27.2 1017.7 0.0
04/09:30am E 24 28 - - - - - - - 27.0 1017.6 0.0
04/09:00am E 24 28 - - - - - - - 27.2 1017.4 0.0
04/08:30am E 27 31 - - - - - - - 27.1 1016.9 0.0
04/08:00am E 26 29 - - - - - - - 27.0 1016.9 0.0
04/07:30am E 24 27 - - - - - - - 26.9 1016.7 0.0
04/07:00am E 25 28 - - - - - - - 26.7 1016.4 0.0
04/06:30am E 20 22 - - - - - - - 26.7 1016.3 0.0
04/06:00am SE 20 24 - - - - - - - 26.6 1015.8 0.0
04/05:30am SE 16 20 - - - - - - - 26.6 1015.7 0.0
04/05:00am SE 15 17 - - - - - - - 26.5 1015.6 0.0
04/04:30am SE 16 20 - - - - - - - 26.2 1015.5 0.0
04/04:00am SE 15 18 - - - - - - - 26.0 1015.6 0.0
04/03:30am SE 11 15 - - - - - - - 26.0 1015.6 0.0
04/03:00am NNW 4 5 - - - - - - - 26.5 1015.5 0.0
04/02:30am NNW 7 9 - - - - - - - 26.5 1015.1 0.0
04/02:00am NNW 9 10 - - - - - - - 26.8 1014.9 0.0
04/01:30am NNW 9 10 - - - - - - - 26.8 1014.9 0.0
04/01:00am N 7 10 - - - - - - - 27.1 1015.1 0.0
04/12:30am NNE 8 11 - - - - - - - 27.5 1015.2 0.0
04/12:00am NNE 11 12 - - - - - - - 27.6 1015.5 0.0
 
Date/Time
WST
Wind Sea
Height
m
Swell Vis
km
Cloud Weather Temp
°C
Press
MSL
hPa
Rain since
9am
mm
Dir  Spd
kts
Gust
kts
Height
m
Period
s
Dir
03/11:30pm N 10 13 - - - - - - - 27.4 1015.4 0.0
03/11:00pm NNE 9 11 - - - - - - - 27.5 1015.5 0.0
03/10:30pm NE 11 13 - - - - - - - 27.6 1015.6 0.0
03/10:00pm NE 11 14 - - - - - - - 27.6 1015.7 0.0
03/09:30pm NE 11 15 - - - - - - - 27.4 1015.7 0.0
03/09:00pm NE 11 16 - - - - - - - 27.3 1015.7 0.0
03/08:30pm NE 11 14 - - - - - - - 27.2 1015.5 0.0
03/08:00pm NE 13 16 - - - - - - - 27.1 1015.1 0.0
03/07:30pm ENE 13 16 - - - - - - - 26.8 1014.8 0.0
03/07:00pm ENE 12 16 - - - - - - - 26.8 1014.4 0.0
03/06:30pm ENE 13 15 - - - - - - - 26.7 1014.1 0.0
03/06:00pm ENE 14 16 - - - - - - - 26.7 1013.8 0.0
03/05:30pm ENE 14 17 - - - - - - - 27.0 1013.5 0.0
03/05:00pm ENE 17 20 - - - - - - - 27.2 1013.2 0.0
03/04:30pm ENE 17 21 - - - - - - - 27.4 1012.9 0.0
03/04:00pm ENE 17 21 - - - - - - - 27.6 1013.0 0.0
03/03:30pm ENE 17 22 - - - - - - - 27.8 1013.0 0.0
03/03:00pm ENE 18 22 - - - - - - - 27.9 1013.1 0.0
03/02:30pm ENE 19 22 - - - - - - - 28.2 1013.4 0.0
03/02:00pm ENE 20 23 - - - - - - - 27.9 1013.4 0.0
03/01:30pm ENE 22 27 - - - - - - - 27.7 1013.6 0.0
03/01:00pm ENE 23 28 - - - - - - - 27.5 1013.9 0.0
03/12:30pm ENE 24 28 - - - - - - - 27.1 1014.2 0.0
03/12:00pm ENE 24 28 - - - - - - - 27.1 1014.5 0.0
03/11:30am E 26 30 - - - - - - - 27.2 1014.8 0.0
03/11:00am E 25 30 - - - - - - - 26.7 1015.0 0.0
03/10:30am E 26 31 - - - - - - - 26.9 1015.2 0.0
03/10:00am E 26 30 - - - - - - - 27.1 1015.4 0.0
03/09:30am E 27 32 - - - - - - - 26.6 1015.0 0.0
03/09:00am E 27 30 - - - - - - - 26.5 1015.0 0.0
03/08:30am E 25 28 - - - - - - - 26.7 1014.9 0.0
03/08:00am ESE 21 24 - - - - - - - 26.2 1014.7 0.0
03/07:41am E 9 21 - - - - - - - 26.3 1014.5 0.0
03/07:30am ENE 4 5 - - - - - - - 27.0 1014.4 0.0
03/07:00am ENE 4 5 - - - - - - - 26.6 1014.0 0.0
03/06:30am ENE 5 7 - - - - - - - 26.7 1013.7 0.0
03/06:00am NNW 5 7 - - - - - - - 26.1 1013.3 0.0
03/05:30am NW 6 7 - - - - - - - 26.5 1013.0 0.0
03/05:00am NNW 7 9 - - - - - - - 26.5 1012.8 0.0
03/04:30am NNW 7 8 - - - - - - - 26.5 1012.6 0.0
03/04:00am NNW 9 10 - - - - - - - 26.7 1012.7 0.0
03/03:30am NNW 10 11 - - - - - - - 26.7 1012.6 0.0
03/03:00am NNW 10 12 - - - - - - - 26.8 1012.7 0.0
03/02:30am NNW 10 12 - - - - - - - 26.8 1012.7 0.0
03/02:00am NNW 11 13 - - - - - - - 26.8 1012.7 0.0
03/01:30am NNW 12 13 - - - - - - - 26.8 1012.7 0.0
03/01:00am NNW 11 13 - - - - - - - 27.0 1012.7 0.0
03/12:30am NW 10 11 - - - - - - - 26.9 1012.8 0.0
03/12:00am NW 11 12 - - - - - - - 26.9 1012.9 0.0
 
Date/Time
WST
Wind Sea
Height
m
Swell Vis
km
Cloud Weather Temp
°C
Press
MSL
hPa
Rain since
9am
mm
Dir  Spd
kts
Gust
kts
Height
m
Period
s
Dir
02/11:30pm NW 11 13 - - - - - - - 27.0 1013.0 0.0
02/11:00pm NNW 11 13 - - - - - - - 27.2 1013.1 0.0
02/10:30pm NW 11 13 - - - - - - - 27.1 1013.2 0.0
02/10:00pm NNW 11 13 - - - - - - - 27.1 1013.3 0.0
02/09:30pm NNW 11 12 - - - - - - - 27.1 1013.4 0.0
02/09:00pm NNW 11 13 - - - - - - - 27.2 1013.2 0.0
02/08:30pm NNW 10 11 - - - - - - - 27.1 1013.0 0.0
02/08:00pm N 11 13 - - - - - - - 27.4 1012.6 0.0
02/07:30pm N 10 13 - - - - - - - 27.6 1012.1 0.0
02/07:00pm N 9 13 - - - - - - - 27.7 1011.8 0.0
02/06:30pm N 10 13 - - - - - - - 27.8 1011.5 0.0
02/06:00pm NNE 11 13 - - - - - - - 27.8 1011.4 0.0
02/05:30pm NNE 11 13 - - - - - - - 28.1 1011.2 0.0
02/05:00pm NE 11 13 - - - - - - - 28.6 1011.0 0.0
02/04:30pm NE 11 13 - - - - - - - 28.8 1010.8 0.0
02/04:00pm NE 12 14 - - - - - - - 28.9 1010.7 0.0
02/03:30pm NE 11 13 - - - - - - - 29.4 1010.8 0.0
02/03:00pm NE 11 14 - - - - - - - 29.7 1010.8 0.0
02/02:30pm NE 12 14 - - - - - - - 29.8 1011.0 0.0
02/02:00pm NE 11 14 - - - - - - - 30.4 1011.2 0.0
02/01:30pm ENE 12 15 - - - - - - - 30.1 1011.4 0.0
02/01:00pm NE 12 15 - - - - - - - 30.1 1011.6 0.0
02/12:30pm ENE 12 14 - - - - - - - 30.1 1012.0 0.0
02/12:00pm ENE 12 14 - - - - - - - 30.3 1012.1 0.0
02/11:30am E 12 14 - - - - - - - 29.9 1012.6 0.0
02/11:00am E 13 15 - - - - - - - 29.3 1012.7 0.0
02/10:30am ESE 14 16 - - - - - - - 29.2 1012.8 0.0
02/10:00am ESE 11 13 - - - - - - - 29.0 1013.1 0.0
02/09:30am SE 8 9 - - - - - - - 27.7 1013.0 0.0
02/09:00am SE 8 11 - - - - - - - 27.7 1012.8 0.0
02/08:30am SE 8 9 - - - - - - - 27.6 1012.6 0.0
02/08:00am SE 8 10 - - - - - - - 27.2 1012.4 0.0
02/07:30am SSE 9 11 - - - - - - - 26.7 1012.1 0.0
02/07:00am SSE 8 11 - - - - - - - 26.4 1011.7 0.0
02/06:30am SSE 10 11 - - - - - - - 26.3 1011.1 0.0
02/06:00am SSE 10 12 - - - - - - - 26.4 1010.9 0.0
02/05:30am SSE 11 13 - - - - - - - 26.5 1010.7 0.0
02/05:00am S 11 15 - - - - - - - 26.4 1010.5 0.0
02/04:30am S 13 16 - - - - - - - 26.7 1010.6 0.0
02/04:00am S 14 17 - - - - - - - 26.7 1010.5 0.0
02/03:30am S 15 17 - - - - - - - 26.9 1010.6 0.0
02/03:00am S 15 18 - - - - - - - 26.9 1010.9 0.0
02/02:30am S 15 17 - - - - - - - 27.0 1011.0 0.0
02/02:00am SSW 17 21 - - - - - - - 27.0 1011.3 0.0
02/01:30am SSW 16 19 - - - - - - - 27.0 1011.6 0.0
02/01:00am SSW 15 18 - - - - - - - 27.1 1011.8 0.0
02/12:30am SSW 16 19 - - - - - - - 27.2 1011.9 0.0
02/12:00am SSW 16 19 - - - - - - - 27.4 1012.2 0.0
 
Date/Time
WST
Wind Sea
Height
m
Swell Vis
km
Cloud Weather Temp
°C
Press
MSL
hPa
Rain since
9am
mm
Dir  Spd
kts
Gust
kts
Height
m
Period
s
Dir
01/11:30pm SW 13 16 - - - - - - - 27.4 1012.3 0.0
01/11:00pm WSW 13 16 - - - - - - - 27.1 1012.6 0.0
01/10:30pm WSW 13 15 - - - - - - - 27.2 1012.6 0.0
01/10:00pm W 13 15 - - - - - - - 27.0 1012.8 0.0

Other formats

Comma delimited format used in spreadsheet applications
http://www.bom.gov.au/fwo/IDW60701/IDW60701.95303.axf

JavaScript Object Notation format (JSON) in row-major order
http://www.bom.gov.au/fwo/IDW60701/IDW60701.95303.json

Data quality

Most of these data are generated automatically and are frequently updated. Quality checks on data are not normally performed. It is possible for incorrect values to appear. Refer to information at About Latest Weather Observations and please check the disclaimer before using these data.